sensor_id;sensor_type;location;lat;lon;timestamp;pressure;altitude;pressure_sealevel;temperature;humidity
6343;BME280;3204;42.698;23.298;2023-04-24T00:02:12;94660.41;;;13.58;59.61
6343;BME280;3204;42.698;23.298;2023-04-24T00:04:38;94649.78;;;13.65;59.72
6343;BME280;3204;42.698;23.298;2023-04-24T00:07:06;94650.44;;;13.62;59.67
6343;BME280;3204;42.698;23.298;2023-04-24T00:09:32;94641.28;;;13.66;60.00
6343;BME280;3204;42.698;23.298;2023-04-24T00:11:58;94637.22;;;13.52;59.77
6343;BME280;3204;42.698;23.298;2023-04-24T00:14:23;94636.38;;;13.60;59.32
6343;BME280;3204;42.698;23.298;2023-04-24T00:16:49;94646.38;;;13.68;59.32
6343;BME280;3204;42.698;23.298;2023-04-24T00:19:14;94646.19;;;13.73;59.11
6343;BME280;3204;42.698;23.298;2023-04-24T00:21:40;94642.78;;;13.76;58.96
6343;BME280;3204;42.698;23.298;2023-04-24T00:24:07;94636.78;;;13.82;59.39
6343;BME280;3204;42.698;23.298;2023-04-24T00:26:34;94644.03;;;13.78;59.26
6343;BME280;3204;42.698;23.298;2023-04-24T00:28:59;94638.91;;;13.77;59.06
6343;BME280;3204;42.698;23.298;2023-04-24T00:31:25;94643.09;;;13.74;58.97
6343;BME280;3204;42.698;23.298;2023-04-24T00:33:50;94633.00;;;13.75;58.94
6343;BME280;3204;42.698;23.298;2023-04-24T00:36:16;94642.56;;;13.81;59.20
6343;BME280;3204;42.698;23.298;2023-04-24T00:38:41;94643.47;;;13.85;58.44
6343;BME280;3204;42.698;23.298;2023-04-24T00:41:07;94639.78;;;14.01;58.74
6343;BME280;3204;42.698;23.298;2023-04-24T00:43:32;94649.44;;;13.99;58.28
6343;BME280;3204;42.698;23.298;2023-04-24T00:45:58;94631.00;;;13.84;57.71
6343;BME280;3204;42.698;23.298;2023-04-24T00:48:24;94633.25;;;13.82;57.18
6343;BME280;3204;42.698;23.298;2023-04-24T00:50:50;94638.28;;;13.59;56.41
6343;BME280;3204;42.698;23.298;2023-04-24T00:53:15;94634.09;;;13.62;56.63
6343;BME280;3204;42.698;23.298;2023-04-24T00:55:41;94634.72;;;13.47;57.83
6343;BME280;3204;42.698;23.298;2023-04-24T00:58:06;94635.44;;;13.56;57.84
6343;BME280;3204;42.698;23.298;2023-04-24T01:00:32;94635.56;;;13.39;58.19
6343;BME280;3204;42.698;23.298;2023-04-24T01:02:59;94634.00;;;13.38;58.90
6343;BME280;3204;42.698;23.298;2023-04-24T01:05:27;94641.31;;;13.46;58.98
6343;BME280;3204;42.698;23.298;2023-04-24T01:07:53;94636.09;;;13.53;60.05
6343;BME280;3204;42.698;23.298;2023-04-24T01:10:18;94629.66;;;13.57;61.18
6343;BME280;3204;42.698;23.298;2023-04-24T01:12:46;94621.78;;;13.76;61.39
6343;BME280;3204;42.698;23.298;2023-04-24T01:15:11;94617.50;;;13.55;61.90
6343;BME280;3204;42.698;23.298;2023-04-24T01:17:37;94616.72;;;13.34;62.25
6343;BME280;3204;42.698;23.298;2023-04-24T01:20:04;94614.16;;;13.17;62.86
6343;BME280;3204;42.698;23.298;2023-04-24T01:22:32;94606.63;;;13.14;62.72
6343;BME280;3204;42.698;23.298;2023-04-24T01:24:57;94609.25;;;12.81;62.80
6343;BME280;3204;42.698;23.298;2023-04-24T01:27:22;94611.81;;;12.78;63.46
6343;BME280;3204;42.698;23.298;2023-04-24T01:29:48;94615.34;;;12.78;63.53
6343;BME280;3204;42.698;23.298;2023-04-24T01:32:15;94608.31;;;12.77;63.99
6343;BME280;3204;42.698;23.298;2023-04-24T01:34:40;94609.97;;;12.70;62.54
6343;BME280;3204;42.698;23.298;2023-04-24T01:37:06;94610.56;;;12.75;62.63
6343;BME280;3204;42.698;23.298;2023-04-24T01:39:32;94605.13;;;12.55;63.34
6343;BME280;3204;42.698;23.298;2023-04-24T01:41:59;94605.38;;;12.33;63.63
6343;BME280;3204;42.698;23.298;2023-04-24T01:44:25;94607.22;;;12.20;63.54
6343;BME280;3204;42.698;23.298;2023-04-24T01:46:51;94602.59;;;12.12;64.06
6343;BME280;3204;42.698;23.298;2023-04-24T01:49:18;94601.69;;;12.00;64.51
6343;BME280;3204;42.698;23.298;2023-04-24T01:51:43;94599.44;;;12.02;64.69
6343;BME280;3204;42.698;23.298;2023-04-24T01:54:09;94590.00;;;11.99;65.26
6343;BME280;3204;42.698;23.298;2023-04-24T01:56:35;94592.28;;;11.97;65.35
6343;BME280;3204;42.698;23.298;2023-04-24T01:59:02;94602.66;;;12.04;65.66
6343;BME280;3204;42.698;23.298;2023-04-24T02:01:33;94599.75;;;12.09;65.46
6343;BME280;3204;42.698;23.298;2023-04-24T02:03:59;94599.06;;;12.20;65.22
6343;BME280;3204;42.698;23.298;2023-04-24T02:06:25;94607.66;;;12.22;64.66
6343;BME280;3204;42.698;23.298;2023-04-24T02:08:51;94600.69;;;12.13;64.98
6343;BME280;3204;42.698;23.298;2023-04-24T02:11:16;94597.47;;;12.19;63.75
6343;BME280;3204;42.698;23.298;2023-04-24T02:13:42;94597.97;;;12.13;64.11
6343;BME280;3204;42.698;23.298;2023-04-24T02:16:07;94601.19;;;12.06;64.81
6343;BME280;3204;42.698;23.298;2023-04-24T02:18:32;94597.78;;;12.18;64.57
6343;BME280;3204;42.698;23.298;2023-04-24T02:20:58;94594.19;;;12.34;64.95
6343;BME280;3204;42.698;23.298;2023-04-24T02:23:23;94596.34;;;12.49;64.12
6343;BME280;3204;42.698;23.298;2023-04-24T02:25:49;94594.63;;;12.45;64.13
6343;BME280;3204;42.698;23.298;2023-04-24T02:28:14;94598.53;;;12.56;63.81
6343;BME280;3204;42.698;23.298;2023-04-24T02:30:40;94599.31;;;12.56;64.26
6343;BME280;3204;42.698;23.298;2023-04-24T02:33:05;94588.41;;;12.65;64.31
6343;BME280;3204;42.698;23.298;2023-04-24T02:35:31;94577.97;;;12.67;63.76
6343;BME280;3204;42.698;23.298;2023-04-24T02:37:57;94578.31;;;12.65;63.47
6343;BME280;3204;42.698;23.298;2023-04-24T02:40:22;94572.59;;;12.58;63.61
6343;BME280;3204;42.698;23.298;2023-04-24T02:42:48;94571.16;;;12.61;64.22
6343;BME280;3204;42.698;23.298;2023-04-24T02:45:13;94566.63;;;12.65;63.41
6343;BME280;3204;42.698;23.298;2023-04-24T02:47:38;94566.34;;;12.58;62.84
6343;BME280;3204;42.698;23.298;2023-04-24T02:50:05;94568.50;;;12.52;63.39
6343;BME280;3204;42.698;23.298;2023-04-24T02:52:30;94568.63;;;12.56;64.02
6343;BME280;3204;42.698;23.298;2023-04-24T02:54:56;94572.47;;;12.75;63.72
6343;BME280;3204;42.698;23.298;2023-04-24T02:57:21;94577.97;;;12.67;63.88
6343;BME280;3204;42.698;23.298;2023-04-24T02:59:46;94572.34;;;12.72;62.91
6343;BME280;3204;42.698;23.298;2023-04-24T03:02:12;94571.16;;;12.61;63.05
6343;BME280;3204;42.698;23.298;2023-04-24T03:04:37;94575.66;;;12.57;63.82
6343;BME280;3204;42.698;23.298;2023-04-24T03:07:05;94570.13;;;12.45;64.62
6343;BME280;3204;42.698;23.298;2023-04-24T03:09:30;94576.41;;;12.37;65.07
6343;BME280;3204;42.698;23.298;2023-04-24T03:11:56;94574.47;;;12.37;65.17
6343;BME280;3204;42.698;23.298;2023-04-24T03:14:23;94583.34;;;12.55;64.97
6343;BME280;3204;42.698;23.298;2023-04-24T03:16:48;94580.06;;;12.41;65.47
6343;BME280;3204;42.698;23.298;2023-04-24T03:19:15;94583.75;;;12.45;65.52
6343;BME280;3204;42.698;23.298;2023-04-24T03:21:41;94576.28;;;12.33;65.70
6343;BME280;3204;42.698;23.298;2023-04-24T03:24:09;94580.22;;;12.44;65.70
6343;BME280;3204;42.698;23.298;2023-04-24T03:26:35;94581.19;;;12.40;65.98
6343;BME280;3204;42.698;23.298;2023-04-24T03:29:01;94580.28;;;12.36;66.12
6343;BME280;3204;42.698;23.298;2023-04-24T03:31:26;94584.25;;;12.38;66.26
6343;BME280;3204;42.698;23.298;2023-04-24T03:33:52;94588.75;;;12.34;66.50
6343;BME280;3204;42.698;23.298;2023-04-24T03:36:17;94583.94;;;12.31;66.56
6343;BME280;3204;42.698;23.298;2023-04-24T03:38:44;94580.41;;;12.39;66.45
6343;BME280;3204;42.698;23.298;2023-04-24T03:41:10;94580.44;;;12.60;66.16
6343;BME280;3204;42.698;23.298;2023-04-24T03:43:35;94583.09;;;12.68;66.17
6343;BME280;3204;42.698;23.298;2023-04-24T03:46:01;94581.97;;;12.69;66.08
6343;BME280;3204;42.698;23.298;2023-04-24T03:48:27;94580.78;;;12.79;66.24
6343;BME280;3204;42.698;23.298;2023-04-24T03:50:52;94583.69;;;13.03;65.69
6343;BME280;3204;42.698;23.298;2023-04-24T03:53:18;94578.47;;;13.10;65.22
6343;BME280;3204;42.698;23.298;2023-04-24T03:55:44;94579.38;;;13.02;65.28
6343;BME280;3204;42.698;23.298;2023-04-24T03:58:10;94584.19;;;12.96;65.70
6343;BME280;3204;42.698;23.298;2023-04-24T04:00:36;94584.59;;;13.07;65.43
6343;BME280;3204;42.698;23.298;2023-04-24T04:03:03;94583.91;;;13.10;65.44
6343;BME280;3204;42.698;23.298;2023-04-24T04:05:29;94584.72;;;13.31;64.94
6343;BME280;3204;42.698;23.298;2023-04-24T04:07:54;94578.16;;;13.44;64.39
6343;BME280;3204;42.698;23.298;2023-04-24T04:10:20;94579.50;;;13.38;64.38
6343;BME280;3204;42.698;23.298;2023-04-24T04:12:45;94582.53;;;13.24;64.84
6343;BME280;3204;42.698;23.298;2023-04-24T04:15:11;94577.69;;;13.09;65.28
6343;BME280;3204;42.698;23.298;2023-04-24T04:17:37;94578.75;;;13.17;65.04
6343;BME280;3204;42.698;23.298;2023-04-24T04:20:03;94580.22;;;13.14;64.91
6343;BME280;3204;42.698;23.298;2023-04-24T04:22:33;94577.91;;;13.04;65.35
6343;BME280;3204;42.698;23.298;2023-04-24T04:24:59;94583.31;;;12.84;65.96
6343;BME280;3204;42.698;23.298;2023-04-24T04:27:25;94587.09;;;12.91;65.80
6343;BME280;3204;42.698;23.298;2023-04-24T04:29:51;94583.88;;;12.89;65.93
6343;BME280;3204;42.698;23.298;2023-04-24T04:32:17;94602.63;;;12.91;66.30
6343;BME280;3204;42.698;23.298;2023-04-24T04:34:43;94597.81;;;12.96;66.01
6343;BME280;3204;42.698;23.298;2023-04-24T04:37:10;94602.19;;;13.09;64.95
6343;BME280;3204;42.698;23.298;2023-04-24T04:39:37;94593.22;;;13.09;64.83
6343;BME280;3204;42.698;23.298;2023-04-24T04:42:03;94596.28;;;13.07;62.37
6343;BME280;3204;42.698;23.298;2023-04-24T04:44:29;94614.59;;;13.19;59.78
6343;BME280;3204;42.698;23.298;2023-04-24T04:46:56;94607.88;;;13.37;58.90
6343;BME280;3204;42.698;23.298;2023-04-24T04:49:22;94615.75;;;13.18;58.96
6343;BME280;3204;42.698;23.298;2023-04-24T04:51:49;94622.16;;;12.93;59.39
6343;BME280;3204;42.698;23.298;2023-04-24T04:54:16;94620.84;;;12.99;58.64
6343;BME280;3204;42.698;23.298;2023-04-24T04:56:41;94624.78;;;12.81;58.83
6343;BME280;3204;42.698;23.298;2023-04-24T04:59:07;94620.63;;;12.54;60.05
6343;BME280;3204;42.698;23.298;2023-04-24T05:01:33;94619.94;;;12.37;60.09
6343;BME280;3204;42.698;23.298;2023-04-24T05:03:58;94622.50;;;12.33;60.29
6343;BME280;3204;42.698;23.298;2023-04-24T05:06:24;94616.88;;;12.09;60.44
6343;BME280;3204;42.698;23.298;2023-04-24T05:08:49;94618.72;;;12.17;60.60
6343;BME280;3204;42.698;23.298;2023-04-24T05:11:15;94624.22;;;12.09;61.39
6343;BME280;3204;42.698;23.298;2023-04-24T05:13:40;94620.63;;;12.25;61.80
6343;BME280;3204;42.698;23.298;2023-04-24T05:16:06;94618.22;;;12.53;60.94
6343;BME280;3204;42.698;23.298;2023-04-24T05:18:31;94617.91;;;12.54;60.24
6343;BME280;3204;42.698;23.298;2023-04-24T05:20:57;94623.09;;;12.47;60.39
6343;BME280;3204;42.698;23.298;2023-04-24T05:23:22;94614.63;;;12.40;60.29
6343;BME280;3204;42.698;23.298;2023-04-24T05:25:48;94618.03;;;12.29;61.11
6343;BME280;3204;42.698;23.298;2023-04-24T05:28:13;94620.31;;;12.27;61.15
6343;BME280;3204;42.698;23.298;2023-04-24T05:30:39;94614.69;;;12.32;61.40
6343;BME280;3204;42.698;23.298;2023-04-24T05:33:05;94614.38;;;12.54;61.20
6343;BME280;3204;42.698;23.298;2023-04-24T05:35:30;94613.53;;;12.62;61.60
6343;BME280;3204;42.698;23.298;2023-04-24T05:37:56;94618.72;;;12.75;60.27
6343;BME280;3204;42.698;23.298;2023-04-24T05:40:21;94623.28;;;12.63;60.16
6343;BME280;3204;42.698;23.298;2023-04-24T05:42:47;94612.84;;;12.44;60.95
6343;BME280;3204;42.698;23.298;2023-04-24T05:45:12;94624.84;;;12.43;61.09
6343;BME280;3204;42.698;23.298;2023-04-24T05:47:42;94631.81;;;12.24;61.00
6343;BME280;3204;42.698;23.298;2023-04-24T05:50:09;94623.84;;;12.19;61.63
6343;BME280;3204;42.698;23.298;2023-04-24T05:52:35;94626.34;;;12.32;61.13
6343;BME280;3204;42.698;23.298;2023-04-24T05:55:00;94618.97;;;12.33;61.45
6343;BME280;3204;42.698;23.298;2023-04-24T05:57:26;94621.97;;;12.40;61.46
6343;BME280;3204;42.698;23.298;2023-04-24T05:59:51;94621.94;;;12.48;60.92
6343;BME280;3204;42.698;23.298;2023-04-24T06:02:17;94618.72;;;12.55;61.35
6343;BME280;3204;42.698;23.298;2023-04-24T06:04:42;94623.25;;;12.92;60.04
6343;BME280;3204;42.698;23.298;2023-04-24T06:07:10;94614.50;;;12.86;60.00
6343;BME280;3204;42.698;23.298;2023-04-24T06:09:36;94626.34;;;12.90;60.17
6343;BME280;3204;42.698;23.298;2023-04-24T06:12:01;94610.78;;;12.91;60.08
6343;BME280;3204;42.698;23.298;2023-04-24T06:14:27;94612.19;;;12.97;59.79
6343;BME280;3204;42.698;23.298;2023-04-24T06:16:53;94621.34;;;12.92;59.93
6343;BME280;3204;42.698;23.298;2023-04-24T06:19:18;94615.97;;;12.84;59.95
6343;BME280;3204;42.698;23.298;2023-04-24T06:21:44;94610.00;;;13.11;59.50
6343;BME280;3204;42.698;23.298;2023-04-24T06:24:09;94617.41;;;13.31;59.73
6343;BME280;3204;42.698;23.298;2023-04-24T06:26:35;94614.97;;;13.50;58.46
6343;BME280;3204;42.698;23.298;2023-04-24T06:29:01;94616.19;;;13.40;58.63
6343;BME280;3204;42.698;23.298;2023-04-24T06:31:26;94619.91;;;13.56;58.40
6343;BME280;3204;42.698;23.298;2023-04-24T06:33:52;94626.09;;;13.77;57.72
6343;BME280;3204;42.698;23.298;2023-04-24T06:36:17;94626.81;;;13.98;57.90
6343;BME280;3204;42.698;23.298;2023-04-24T06:38:43;94626.88;;;14.22;57.49
6343;BME280;3204;42.698;23.298;2023-04-24T06:41:09;94621.44;;;14.34;56.88
6343;BME280;3204;42.698;23.298;2023-04-24T06:43:35;94623.63;;;14.41;56.85
6343;BME280;3204;42.698;23.298;2023-04-24T06:46:00;94624.28;;;14.38;56.46
6343;BME280;3204;42.698;23.298;2023-04-24T06:48:27;94617.47;;;14.32;57.30
6343;BME280;3204;42.698;23.298;2023-04-24T06:50:53;94623.81;;;14.24;57.50
6343;BME280;3204;42.698;23.298;2023-04-24T06:53:18;94619.06;;;14.45;56.85
6343;BME280;3204;42.698;23.298;2023-04-24T06:55:43;94616.69;;;14.67;56.13
6343;BME280;3204;42.698;23.298;2023-04-24T06:58:11;94610.63;;;14.86;56.26
6343;BME280;3204;42.698;23.298;2023-04-24T07:00:37;94617.41;;;15.16;55.27
6343;BME280;3204;42.698;23.298;2023-04-24T07:03:03;94607.06;;;14.97;55.41
6343;BME280;3204;42.698;23.298;2023-04-24T07:05:30;94603.72;;;15.40;55.29
6343;BME280;3204;42.698;23.298;2023-04-24T07:07:56;94613.38;;;15.92;53.93
6343;BME280;3204;42.698;23.298;2023-04-24T07:10:23;94607.84;;;16.04;53.48
6343;BME280;3204;42.698;23.298;2023-04-24T07:12:49;94600.63;;;16.12;52.96
6343;BME280;3204;42.698;23.298;2023-04-24T07:15:15;94604.66;;;16.18;52.89
6343;BME280;3204;42.698;23.298;2023-04-24T07:17:41;94609.19;;;16.26;52.61
6343;BME280;3204;42.698;23.298;2023-04-24T07:20:10;94595.13;;;16.12;52.29
6343;BME280;3204;42.698;23.298;2023-04-24T07:22:36;94607.50;;;16.06;52.92
6343;BME280;3204;42.698;23.298;2023-04-24T07:25:01;94598.31;;;15.98;53.08
6343;BME280;3204;42.698;23.298;2023-04-24T07:27:27;94592.75;;;16.10;53.34
6343;BME280;3204;42.698;23.298;2023-04-24T07:29:53;94599.53;;;16.01;53.18
6343;BME280;3204;42.698;23.298;2023-04-24T07:32:18;94592.41;;;16.58;52.55
6343;BME280;3204;42.698;23.298;2023-04-24T07:34:44;94597.13;;;16.92;51.87
6343;BME280;3204;42.698;23.298;2023-04-24T07:37:09;94591.22;;;17.41;50.57
6343;BME280;3204;42.698;23.298;2023-04-24T07:39:34;94595.53;;;17.61;50.20
6343;BME280;3204;42.698;23.298;2023-04-24T07:42:00;94588.63;;;17.32;49.92
6343;BME280;3204;42.698;23.298;2023-04-24T07:44:26;94589.88;;;17.00;50.35
6343;BME280;3204;42.698;23.298;2023-04-24T07:46:52;94581.50;;;17.28;50.43
6343;BME280;3204;42.698;23.298;2023-04-24T07:49:17;94578.44;;;17.67;49.90
6343;BME280;3204;42.698;23.298;2023-04-24T07:51:43;94583.91;;;17.86;49.32
6343;BME280;3204;42.698;23.298;2023-04-24T07:54:08;94576.97;;;17.73;49.36
6343;BME280;3204;42.698;23.298;2023-04-24T07:56:34;94572.59;;;18.10;48.57
6343;BME280;3204;42.698;23.298;2023-04-24T07:58:59;94575.06;;;17.96;48.29
6343;BME280;3204;42.698;23.298;2023-04-24T08:01:26;94576.84;;;18.08;47.91
6343;BME280;3204;42.698;23.298;2023-04-24T08:03:52;94570.19;;;17.86;48.02
6343;BME280;3204;42.698;23.298;2023-04-24T08:06:17;94575.28;;;18.29;47.26
6343;BME280;3204;42.698;23.298;2023-04-24T08:08:43;94568.84;;;18.41;47.09
6343;BME280;3204;42.698;23.298;2023-04-24T08:11:08;94571.00;;;18.54;47.70
6343;BME280;3204;42.698;23.298;2023-04-24T08:13:33;94564.63;;;18.47;48.42
6343;BME280;3204;42.698;23.298;2023-04-24T08:15:59;94570.41;;;18.90;47.38
6343;BME280;3204;42.698;23.298;2023-04-24T08:18:24;94552.00;;;19.20;46.34
6343;BME280;3204;42.698;23.298;2023-04-24T08:20:50;94560.03;;;19.06;46.81
6343;BME280;3204;42.698;23.298;2023-04-24T08:23:15;94554.03;;;19.23;46.63
6343;BME280;3204;42.698;23.298;2023-04-24T08:25:41;94556.91;;;19.34;46.08
6343;BME280;3204;42.698;23.298;2023-04-24T08:28:09;94556.03;;;19.92;45.17
6343;BME280;3204;42.698;23.298;2023-04-24T08:30:35;94550.69;;;20.46;43.83
6343;BME280;3204;42.698;23.298;2023-04-24T08:33:01;94552.28;;;20.91;43.27
6343;BME280;3204;42.698;23.298;2023-04-24T08:35:26;94552.97;;;20.84;43.33
6343;BME280;3204;42.698;23.298;2023-04-24T08:40:22;94546.75;;;20.07;45.32
6343;BME280;3204;42.698;23.298;2023-04-24T08:42:49;94533.56;;;19.54;45.81
6343;BME280;3204;42.698;23.298;2023-04-24T08:45:18;94519.22;;;19.67;45.92
6343;BME280;3204;42.698;23.298;2023-04-24T08:47:44;94524.28;;;19.65;46.38
6343;BME280;3204;42.698;23.298;2023-04-24T08:50:10;94524.72;;;20.07;45.44
6343;BME280;3204;42.698;23.298;2023-04-24T08:52:36;94525.91;;;20.46;44.95
6343;BME280;3204;42.698;23.298;2023-04-24T08:55:02;94514.22;;;20.13;44.65
6343;BME280;3204;42.698;23.298;2023-04-24T08:57:28;94508.00;;;19.86;45.80
6343;BME280;3204;42.698;23.298;2023-04-24T08:59:56;94512.75;;;20.26;44.79
6343;BME280;3204;42.698;23.298;2023-04-24T09:02:23;94505.22;;;20.19;44.66
6343;BME280;3204;42.698;23.298;2023-04-24T09:04:49;94510.41;;;20.28;44.78
6343;BME280;3204;42.698;23.298;2023-04-24T09:07:16;94514.81;;;20.36;44.54
6343;BME280;3204;42.698;23.298;2023-04-24T09:09:42;94496.09;;;20.59;44.15
6343;BME280;3204;42.698;23.298;2023-04-24T09:12:08;94490.75;;;20.83;44.48
6343;BME280;3204;42.698;23.298;2023-04-24T09:14:35;94483.66;;;20.82;44.43
6343;BME280;3204;42.698;23.298;2023-04-24T09:17:03;94489.44;;;20.63;44.57
6343;BME280;3204;42.698;23.298;2023-04-24T09:19:29;94492.41;;;20.95;44.03
6343;BME280;3204;42.698;23.298;2023-04-24T09:21:54;94486.03;;;20.87;43.36
6343;BME280;3204;42.698;23.298;2023-04-24T09:24:21;94481.25;;;20.77;44.33
6343;BME280;3204;42.698;23.298;2023-04-24T09:26:56;94476.97;;;20.29;44.03
6343;BME280;3204;42.698;23.298;2023-04-24T09:29:26;94476.91;;;20.73;44.02
6343;BME280;3204;42.698;23.298;2023-04-24T09:31:52;94469.59;;;20.94;43.48
6343;BME280;3204;42.698;23.298;2023-04-24T09:34:25;94464.84;;;20.91;42.64
6343;BME280;3204;42.698;23.298;2023-04-24T09:36:51;94464.06;;;20.94;43.10
6343;BME280;3204;42.698;23.298;2023-04-24T09:39:17;94472.50;;;20.65;43.09
6343;BME280;3204;42.698;23.298;2023-04-24T09:41:49;94462.25;;;20.65;43.17
6343;BME280;3204;42.698;23.298;2023-04-24T09:44:17;94470.78;;;21.00;42.60
6343;BME280;3204;42.698;23.298;2023-04-24T09:46:45;94464.66;;;21.42;41.98
6343;BME280;3204;42.698;23.298;2023-04-24T09:49:16;94458.97;;;22.13;41.27
6343;BME280;3204;42.698;23.298;2023-04-24T09:51:42;94471.97;;;21.95;40.31
6343;BME280;3204;42.698;23.298;2023-04-24T09:54:20;94457.72;;;21.93;40.55
6343;BME280;3204;42.698;23.298;2023-04-24T09:56:50;94462.13;;;22.26;40.52
6343;BME280;3204;42.698;23.298;2023-04-24T09:59:17;94459.75;;;22.70;39.36
6343;BME280;3204;42.698;23.298;2023-04-24T10:01:43;94451.84;;;22.89;39.71
6343;BME280;3204;42.698;23.298;2023-04-24T10:06:42;94442.41;;;23.83;38.35
6343;BME280;3204;42.698;23.298;2023-04-24T10:09:08;94435.28;;;24.37;37.24
6343;BME280;3204;42.698;23.298;2023-04-24T10:11:36;94441.13;;;23.98;36.54
6343;BME280;3204;42.698;23.298;2023-04-24T10:14:02;94428.69;;;23.55;37.82
6343;BME280;3204;42.698;23.298;2023-04-24T10:16:29;94424.34;;;23.51;37.64
6343;BME280;3204;42.698;23.298;2023-04-24T10:18:58;94416.88;;;23.48;38.16
6343;BME280;3204;42.698;23.298;2023-04-24T10:21:24;94406.97;;;23.50;38.18
6343;BME280;3204;42.698;23.298;2023-04-24T10:23:51;94410.47;;;23.61;37.44
6343;BME280;3204;42.698;23.298;2023-04-24T10:26:19;94402.00;;;23.86;37.56
6343;BME280;3204;42.698;23.298;2023-04-24T10:28:47;94406.53;;;23.52;37.12
6343;BME280;3204;42.698;23.298;2023-04-24T10:31:14;94395.22;;;23.11;38.17
6343;BME280;3204;42.698;23.298;2023-04-24T10:33:43;94394.19;;;22.63;38.48
6343;BME280;3204;42.698;23.298;2023-04-24T10:36:13;94398.16;;;22.41;39.15
6343;BME280;3204;42.698;23.298;2023-04-24T10:38:41;94387.53;;;22.22;39.35
6343;BME280;3204;42.698;23.298;2023-04-24T10:41:10;94385.56;;;22.16;39.20
6343;BME280;3204;42.698;23.298;2023-04-24T10:43:41;94385.94;;;22.00;39.20
6343;BME280;3204;42.698;23.298;2023-04-24T10:46:07;94381.59;;;21.99;39.42
6343;BME280;3204;42.698;23.298;2023-04-24T10:48:33;94377.94;;;21.32;40.59
6343;BME280;3204;42.698;23.298;2023-04-24T10:50:59;94374.31;;;21.14;40.62
6343;BME280;3204;42.698;23.298;2023-04-24T10:53:28;94374.31;;;21.14;40.94
6343;BME280;3204;42.698;23.298;2023-04-24T10:56:05;94375.09;;;21.11;41.18
6343;BME280;3204;42.698;23.298;2023-04-24T10:58:45;94374.94;;;20.83;41.72
6343;BME280;3204;42.698;23.298;2023-04-24T11:01:31;94378.44;;;20.73;42.12
6343;BME280;3204;42.698;23.298;2023-04-24T11:04:00;94378.44;;;20.73;42.16
6343;BME280;3204;42.698;23.298;2023-04-24T11:06:31;94377.25;;;20.74;42.49
6343;BME280;3204;42.698;23.298;2023-04-24T11:09:05;94371.75;;;20.74;42.93
6343;BME280;3204;42.698;23.298;2023-04-24T11:11:32;94372.84;;;20.59;42.37
6343;BME280;3204;42.698;23.298;2023-04-24T11:19:00;94391.56;;;20.29;42.55
6343;BME280;3204;42.698;23.298;2023-04-24T11:21:31;94417.97;;;20.34;43.95
6343;BME280;3204;42.698;23.298;2023-04-24T11:23:58;94446.72;;;19.93;53.40
6343;BME280;3204;42.698;23.298;2023-04-24T11:26:23;94431.06;;;19.60;55.21
6343;BME280;3204;42.698;23.298;2023-04-24T11:29:07;94422.84;;;19.27;58.43
6343;BME280;3204;42.698;23.298;2023-04-24T11:31:36;94406.69;;;19.22;60.93
6343;BME280;3204;42.698;23.298;2023-04-24T11:34:13;94406.41;;;19.71;64.42
6343;BME280;3204;42.698;23.298;2023-04-24T11:36:39;94405.72;;;19.81;62.90
6343;BME280;3204;42.698;23.298;2023-04-24T11:39:05;94394.66;;;19.77;59.58
6343;BME280;3204;42.698;23.298;2023-04-24T11:41:32;94383.66;;;19.77;58.68
6343;BME280;3204;42.698;23.298;2023-04-24T11:43:58;94392.28;;;19.72;56.98
6343;BME280;3204;42.698;23.298;2023-04-24T11:46:27;94375.56;;;19.98;56.40
6343;BME280;3204;42.698;23.298;2023-04-24T11:48:54;94382.94;;;20.31;54.29
6343;BME280;3204;42.698;23.298;2023-04-24T11:51:19;94380.63;;;20.40;52.46
6343;BME280;3204;42.698;23.298;2023-04-24T11:53:44;94379.47;;;20.48;55.39
6343;BME280;3204;42.698;23.298;2023-04-24T11:56:10;94373.38;;;20.82;51.84
6343;BME280;3204;42.698;23.298;2023-04-24T11:58:38;94368.75;;;21.00;50.48
6343;BME280;3204;42.698;23.298;2023-04-24T12:01:04;94357.81;;;21.32;48.49
6343;BME280;3204;42.698;23.298;2023-04-24T12:03:30;94357.84;;;21.46;49.00
6343;BME280;3204;42.698;23.298;2023-04-24T12:06:10;94358.72;;;21.81;47.52
6343;BME280;3204;42.698;23.298;2023-04-24T12:08:36;94356.31;;;22.11;46.02
6343;BME280;3204;42.698;23.298;2023-04-24T12:11:03;94353.56;;;22.11;44.80
6343;BME280;3204;42.698;23.298;2023-04-24T12:13:30;94353.19;;;21.95;44.00
6343;BME280;3204;42.698;23.298;2023-04-24T12:15:59;94357.13;;;21.87;44.54
6343;BME280;3204;42.698;23.298;2023-04-24T12:18:25;94354.78;;;21.75;43.16
6343;BME280;3204;42.698;23.298;2023-04-24T12:20:51;94357.88;;;21.56;43.75
6343;BME280;3204;42.698;23.298;2023-04-24T12:23:28;94347.19;;;21.48;45.01
6343;BME280;3204;42.698;23.298;2023-04-24T12:26:00;94335.75;;;21.53;45.38
6343;BME280;3204;42.698;23.298;2023-04-24T12:28:34;94328.66;;;21.55;45.75
6343;BME280;3204;42.698;23.298;2023-04-24T12:31:01;94329.47;;;21.59;45.61
6343;BME280;3204;42.698;23.298;2023-04-24T12:33:26;94315.28;;;21.61;46.05
6343;BME280;3204;42.698;23.298;2023-04-24T12:35:52;94302.28;;;21.61;43.71
6343;BME280;3204;42.698;23.298;2023-04-24T12:38:26;94297.13;;;21.53;44.54
6343;BME280;3204;42.698;23.298;2023-04-24T12:41:05;94295.97;;;21.78;43.91
6343;BME280;3204;42.698;23.298;2023-04-24T12:43:30;94299.13;;;21.94;43.92
6343;BME280;3204;42.698;23.298;2023-04-24T12:45:56;94290.81;;;22.05;43.49
6343;BME280;3204;42.698;23.298;2023-04-24T12:48:22;94293.19;;;22.06;43.42
6343;BME280;3204;42.698;23.298;2023-04-24T12:50:48;94281.34;;;22.09;43.86
6343;BME280;3204;42.698;23.298;2023-04-24T12:53:14;94267.50;;;22.16;42.30
6343;BME280;3204;42.698;23.298;2023-04-24T12:55:40;94273.06;;;22.09;42.36
6343;BME280;3204;42.698;23.298;2023-04-24T12:58:06;94264.78;;;21.99;43.32
6343;BME280;3204;42.698;23.298;2023-04-24T13:00:31;94260.03;;;22.10;42.67
6343;BME280;3204;42.698;23.298;2023-04-24T13:02:57;94249.38;;;22.15;42.00
6343;BME280;3204;42.698;23.298;2023-04-24T13:05:22;94243.06;;;22.11;42.10
6343;BME280;3204;42.698;23.298;2023-04-24T13:07:48;94242.66;;;22.23;42.42
6343;BME280;3204;42.698;23.298;2023-04-24T13:10:13;94241.41;;;22.38;42.93
6343;BME280;3204;42.698;23.298;2023-04-24T13:12:39;94240.16;;;22.57;41.92
6343;BME280;3204;42.698;23.298;2023-04-24T13:15:06;94235.38;;;22.71;42.50
6343;BME280;3204;42.698;23.298;2023-04-24T13:17:32;94231.38;;;22.79;41.61